Time;durP1;ratioP1;P1;durP2;ratioP2;P2;SDS_P1;SDS_P2;PMS_P1;PMS_P2;Temp;Humidity;BMP_temperature;BMP_pressure;BME280_temperature;BME280_humidity;BME280_pressure;Samples;Min_cycle;Max_cycle;Signal;HPM_P1;HPM_P2
2020/12/03 00:01:32;;;;;;;73.13;31.57;;;0.50;99.90;;;;;;5131458;28;20456;-66
2020/12/03 00:04:03;;;;;;;65.27;32.03;;;0.50;99.90;;;;;;5132402;28;20523;-67
2020/12/03 00:06:34;;;;;;;75.57;33.97;;;0.40;99.90;;;;;;5132138;28;20472;-67
2020/12/03 00:09:03;;;;;;;71.63;32.60;;;0.40;99.90;;;;;;5133759;28;20417;-67
2020/12/03 00:11:32;;;;;;;78.80;35.97;;;0.40;99.90;;;;;;5134418;28;20480;-68
2020/12/03 00:13:58;;;;;;;85.10;35.83;;;0.30;99.90;;;;;;5132495;28;20451;-67
2020/12/03 00:16:29;;;;;;;76.60;32.30;;;0.10;99.90;;;;;;5132508;28;20501;-67
2020/12/03 00:18:56;;;;;;;67.47;31.40;;;0.10;99.90;;;;;;5132953;28;20449;-66
2020/12/03 00:21:34;;;;;;;80.73;35.90;;;0.10;99.90;;;;;;5131831;28;20432;-67
2020/12/03 00:24:00;;;;;;;76.07;35.80;;;0.20;99.90;;;;;;5129702;28;20464;-67
2020/12/03 00:26:28;;;;;;;77.93;33.80;;;0.20;99.90;;;;;;5131874;28;20460;-67
2020/12/03 00:28:54;;;;;;;69.80;30.20;;;0.20;99.90;;;;;;5132538;28;20440;-66
2020/12/03 00:31:21;;;;;;;73.60;34.60;;;0.20;99.90;;;;;;5131163;28;20441;-66
2020/12/03 00:33:48;;;;;;;75.73;35.93;;;0.30;99.90;;;;;;5131743;28;20439;-66
2020/12/03 00:36:14;;;;;;;83.30;39.37;;;0.20;99.90;;;;;;5125079;28;20417;-67
2020/12/03 00:38:41;;;;;;;77.60;34.70;;;0.20;99.90;;;;;;5124029;28;20426;-66
2020/12/03 00:41:08;;;;;;;73.67;33.43;;;0.20;99.90;;;;;;5125562;28;20480;-67
2020/12/03 00:43:34;;;;;;;70.73;35.20;;;0.30;99.90;;;;;;5126891;28;20504;-67
2020/12/03 00:46:01;;;;;;;80.43;30.90;;;0.30;99.90;;;;;;5130717;28;20463;-67
2020/12/03 00:48:27;;;;;;;77.73;32.83;;;0.30;99.90;;;;;;5111056;28;20445;-66
2020/12/03 00:50:54;;;;;;;82.33;35.20;;;0.30;99.90;;;;;;5121346;28;20440;-67
2020/12/03 00:53:20;;;;;;;73.33;36.77;;;0.30;99.90;;;;;;5122999;28;20443;-66
2020/12/03 00:55:47;;;;;;;67.20;31.00;;;0.30;99.90;;;;;;5124316;28;20452;-67
2020/12/03 00:58:14;;;;;;;63.53;32.70;;;0.30;99.90;;;;;;5131794;28;20972;-67
2020/12/03 01:00:41;;;;;;;66.37;33.50;;;0.30;99.90;;;;;;5131180;28;20472;-66
2020/12/03 01:03:09;;;;;;;64.87;33.43;;;0.30;99.90;;;;;;5128504;28;20472;-66
2020/12/03 01:05:36;;;;;;;75.07;32.23;;;0.30;99.90;;;;;;5131493;28;20488;-67
2020/12/03 01:08:02;;;;;;;65.27;31.33;;;0.40;99.90;;;;;;5130792;28;20440;-67
2020/12/03 01:10:34;;;;;;;82.03;35.50;;;0.40;99.90;;;;;;5131866;28;20441;-66
2020/12/03 01:13:03;;;;;;;78.67;31.43;;;0.40;99.90;;;;;;5135420;28;20441;-67
2020/12/03 01:15:29;;;;;;;70.83;31.20;;;0.40;99.90;;;;;;5118682;28;20439;-66
2020/12/03 01:17:56;;;;;;;71.00;33.40;;;0.40;99.90;;;;;;5133450;28;20432;-68
2020/12/03 01:20:25;;;;;;;81.07;34.07;;;0.40;99.90;;;;;;5125826;28;20455;-67
2020/12/03 01:22:52;;;;;;;72.77;34.40;;;0.40;99.90;;;;;;5134864;28;20507;-68
2020/12/03 01:25:21;;;;;;;76.10;36.20;;;0.40;99.90;;;;;;5134171;28;20484;-66
2020/12/03 01:27:47;;;;;;;78.73;33.80;;;0.30;99.90;;;;;;5129106;28;20508;-67
2020/12/03 01:30:16;;;;;;;64.93;31.73;;;0.30;99.90;;;;;;5134352;28;20444;-67
2020/12/03 01:32:42;;;;;;;67.60;32.63;;;0.40;99.90;;;;;;5135054;28;20444;-66
2020/12/03 01:35:11;;;;;;;87.27;34.43;;;0.40;99.90;;;;;;5135477;28;20483;-67
2020/12/03 01:37:38;;;;;;;70.33;31.10;;;0.30;99.90;;;;;;5126180;28;20463;-68
2020/12/03 01:40:05;;;;;;;64.50;29.63;;;0.30;99.90;;;;;;5134815;28;20444;-67
2020/12/03 01:42:32;;;;;;;85.63;35.63;;;0.30;99.90;;;;;;5135693;28;20507;-67
2020/12/03 01:44:58;;;;;;;70.97;34.30;;;0.30;99.90;;;;;;5135270;28;20453;-67
2020/12/03 01:47:30;;;;;;;82.90;32.10;;;0.30;99.90;;;;;;5135033;28;20437;-67
2020/12/03 01:49:57;;;;;;;73.27;34.23;;;0.30;99.90;;;;;;5134597;28;20970;-67
2020/12/03 01:52:24;;;;;;;92.13;33.37;;;0.40;99.90;;;;;;5135027;28;20437;-66
2020/12/03 01:54:51;;;;;;;73.53;33.20;;;0.40;99.90;;;;;;5135780;28;20440;-66
2020/12/03 01:57:44;;;;;;;57.53;26.97;;;0.40;99.90;;;;;;5135819;28;20490;-67
2020/12/03 02:00:12;;;;;;;76.57;34.87;;;0.40;99.90;;;;;;5126578;28;20439;-66
2020/12/03 02:02:42;;;;;;;79.67;35.03;;;0.30;99.90;;;;;;5135856;28;20499;-66
2020/12/03 02:05:12;;;;;;;75.43;34.03;;;0.30;99.90;;;;;;5135725;28;20452;-66
2020/12/03 02:07:38;;;;;;;68.73;34.40;;;0.30;99.90;;;;;;5134848;28;20452;-67
2020/12/03 02:10:06;;;;;;;71.07;36.03;;;0.30;99.90;;;;;;5134994;28;20517;-66
2020/12/03 02:12:32;;;;;;;82.07;33.57;;;0.30;99.90;;;;;;5135923;28;20453;-66
2020/12/03 02:14:58;;;;;;;76.47;34.50;;;0.30;99.90;;;;;;5134611;28;20949;-67
2020/12/03 02:17:25;;;;;;;62.30;30.77;;;0.40;99.90;;;;;;5136108;28;20440;-67
2020/12/03 02:19:59;;;;;;;87.30;34.40;;;0.30;99.90;;;;;;5134043;28;20503;-67
2020/12/03 02:22:26;;;;;;;76.60;33.83;;;0.30;99.90;;;;;;5135078;28;20480;-67
2020/12/03 02:24:52;;;;;;;79.07;29.43;;;0.30;99.90;;;;;;5135281;28;20447;-67
2020/12/03 02:27:22;;;;;;;83.20;38.20;;;0.30;99.90;;;;;;5136236;28;20440;-66
2020/12/03 02:29:49;;;;;;;71.13;33.93;;;0.20;99.90;;;;;;5134898;28;20452;-66
2020/12/03 02:32:16;;;;;;;86.40;38.40;;;0.20;99.90;;;;;;5135968;28;20448;-66
2020/12/03 02:34:42;;;;;;;75.90;34.90;;;0.20;99.90;;;;;;5135485;28;20483;-66
2020/12/03 02:37:10;;;;;;;76.67;35.27;;;0.10;99.90;;;;;;5135702;28;20468;-67
2020/12/03 02:39:38;;;;;;;72.77;32.70;;;0.10;99.90;;;;;;5135275;28;20460;-67
2020/12/03 02:42:08;;;;;;;77.73;33.83;;;0.10;99.90;;;;;;5135035;28;20482;-67
2020/12/03 02:44:35;;;;;;;83.40;38.33;;;0.10;99.90;;;;;;5134715;28;20437;-67
2020/12/03 02:47:01;;;;;;;82.93;35.33;;;0.10;99.90;;;;;;5135247;28;20437;-66
2020/12/03 02:49:28;;;;;;;74.53;35.50;;;0.10;99.90;;;;;;5135117;28;20481;-67
2020/12/03 02:51:54;;;;;;;74.30;35.27;;;0.10;99.90;;;;;;5135103;28;20428;-66
2020/12/03 02:54:21;;;;;;;86.83;34.13;;;0.00;99.90;;;;;;5135352;28;20466;-66
2020/12/03 02:56:48;;;;;;;89.70;37.13;;;0.00;99.90;;;;;;5135155;28;20480;-66
2020/12/03 02:59:14;;;;;;;92.97;39.73;;;0.00;99.90;;;;;;5132163;28;20445;-66
2020/12/03 03:01:41;;;;;;;81.90;36.03;;;0.00;99.90;;;;;;5135091;28;20456;-66
2020/12/03 03:04:07;;;;;;;76.70;36.50;;;0.00;99.90;;;;;;5134386;28;20504;-66
2020/12/03 03:06:37;;;;;;;75.43;33.20;;;0.00;99.90;;;;;;5444228;22;20472;-63
2020/12/03 03:09:06;;;;;;;93.87;36.47;;;0.00;99.90;;;;;;5259671;22;20484;-66
2020/12/03 03:11:34;;;;;;;88.63;37.80;;;-0.10;99.90;;;;;;5132212;28;20436;-65
2020/12/03 03:14:01;;;;;;;83.70;35.13;;;0.00;99.90;;;;;;5126905;28;20893;-65
2020/12/03 03:16:27;;;;;;;85.20;38.80;;;0.00;99.90;;;;;;5133704;28;20437;-66
2020/12/03 03:18:54;;;;;;;87.20;36.33;;;0.00;99.90;;;;;;5132012;28;20464;-67
2020/12/03 03:21:20;;;;;;;88.60;40.10;;;-0.10;99.90;;;;;;5129175;28;20465;-67
2020/12/03 03:23:46;;;;;;;77.83;34.73;;;0.00;99.90;;;;;;5128341;28;20507;-67
2020/12/03 03:26:13;;;;;;;91.97;37.73;;;0.00;99.90;;;;;;5126821;28;20596;-67
2020/12/03 03:28:40;;;;;;;77.63;39.40;;;0.00;99.90;;;;;;5130415;28;20513;-66
2020/12/03 03:31:07;;;;;;;93.93;37.97;;;0.00;99.90;;;;;;5135010;28;20444;-67
2020/12/03 03:33:33;;;;;;;94.43;36.60;;;-0.10;99.90;;;;;;5134463;28;20468;-66
2020/12/03 03:35:59;;;;;;;97.20;41.23;;;0.00;99.90;;;;;;5133962;28;20473;-67
2020/12/03 03:38:26;;;;;;;88.67;39.10;;;0.00;99.90;;;;;;5134916;28;20479;-66
2020/12/03 03:40:52;;;;;;;85.23;37.77;;;0.00;99.90;;;;;;5133807;28;20459;-66
2020/12/03 03:43:19;;;;;;;78.20;38.03;;;0.10;99.90;;;;;;5133554;28;20532;-66
2020/12/03 03:45:46;;;;;;;77.13;37.50;;;0.10;99.90;;;;;;5133462;28;20436;-67
2020/12/03 03:48:13;;;;;;;86.77;38.30;;;0.10;99.90;;;;;;5133306;28;20473;-66
2020/12/03 03:50:39;;;;;;;89.17;37.90;;;0.10;99.90;;;;;;5133089;28;20455;-67
2020/12/03 03:53:06;;;;;;;94.80;39.73;;;0.20;99.90;;;;;;5133659;28;20440;-66
2020/12/03 03:55:32;;;;;;;95.60;42.07;;;0.20;99.90;;;;;;5133490;28;20433;-66
2020/12/03 03:57:59;;;;;;;93.33;40.77;;;0.20;99.90;;;;;;5133999;28;20464;-66
2020/12/03 04:00:25;;;;;;;97.73;40.97;;;0.20;99.90;;;;;;5134401;28;20445;-67
2020/12/03 04:02:52;;;;;;;103.30;40.53;;;0.20;99.90;;;;;;5133214;28;20487;-66
2020/12/03 04:05:19;;;;;;;93.03;39.83;;;0.20;99.90;;;;;;5134596;28;20433;-67
2020/12/03 04:07:46;;;;;;;80.90;40.10;;;0.20;99.90;;;;;;5133925;28;20464;-66
2020/12/03 04:10:13;;;;;;;101.17;44.20;;;0.20;99.90;;;;;;5134166;28;20433;-65
2020/12/03 04:12:39;;;;;;;98.77;43.50;;;0.20;99.90;;;;;;5134260;28;20444;-66
2020/12/03 04:15:07;;;;;;;84.13;37.03;;;0.20;99.90;;;;;;5134576;28;20440;-66
2020/12/03 04:17:36;;;;;;;97.87;42.97;;;0.20;99.90;;;;;;5134178;28;20845;-66
2020/12/03 04:20:06;;;;;;;89.73;41.73;;;0.30;99.90;;;;;;5133975;28;20468;-66
2020/12/03 04:22:33;;;;;;;85.83;38.07;;;0.30;99.90;;;;;;5133854;28;20856;-66
2020/12/03 04:24:59;;;;;;;92.77;41.77;;;0.30;99.90;;;;;;5134410;28;20427;-67
2020/12/03 04:27:25;;;;;;;93.37;37.30;;;0.30;99.90;;;;;;5135152;28;20504;-66
2020/12/03 04:29:52;;;;;;;98.63;40.27;;;0.20;99.90;;;;;;5134873;28;20453;-66
2020/12/03 04:32:18;;;;;;;101.57;42.10;;;0.20;99.90;;;;;;5134520;28;20833;-66
2020/12/03 04:34:45;;;;;;;88.63;40.53;;;0.20;99.90;;;;;;5135029;28;20436;-66
2020/12/03 04:37:12;;;;;;;96.70;42.40;;;0.20;99.90;;;;;;5134632;28;20436;-66
2020/12/03 04:39:38;;;;;;;114.80;41.37;;;0.20;99.90;;;;;;5134761;28;20443;-66
2020/12/03 04:42:13;;;;;;;91.30;40.10;;;0.20;99.90;;;;;;5134692;28;20456;-66
2020/12/03 04:44:40;;;;;;;87.67;41.03;;;0.20;99.90;;;;;;5134800;28;20440;-66
2020/12/03 04:47:29;;;;;;;93.50;43.00;;;0.20;99.90;;;;;;5136981;28;20440;-66
2020/12/03 04:50:06;;;;;;;83.20;38.07;;;0.10;99.90;;;;;;5138766;28;20452;-66
2020/12/03 04:53:00;;;;;;;98.33;42.67;;;0.20;99.90;;;;;;5138536;28;20431;-66
2020/12/03 04:55:33;;;;;;;94.50;38.63;;;0.20;99.90;;;;;;5138595;28;20412;-66
2020/12/03 04:58:09;;;;;;;106.70;44.13;;;0.20;99.90;;;;;;5138215;28;20425;-66
2020/12/03 05:00:46;;;;;;;103.13;40.60;;;0.20;99.90;;;;;;5138204;28;20428;-66
2020/12/03 05:03:57;;;;;;;89.13;43.20;;;0.20;99.90;;;;;;5137911;28;20479;-66
2020/12/03 05:06:46;;;;;;;99.23;37.83;;;0.20;99.90;;;;;;5137314;28;20447;-66
2020/12/03 05:09:21;;;;;;;100.97;39.27;;;0.20;99.90;;;;;;5137548;28;20460;-66
2020/12/03 05:11:55;;;;;;;96.33;39.40;;;0.20;99.90;;;;;;5137606;28;20482;-66
2020/12/03 05:14:42;;;;;;;96.80;40.23;;;0.20;99.90;;;;;;5137568;28;20421;-67
2020/12/03 05:17:32;;;;;;;103.10;43.00;;;0.20;99.90;;;;;;5137780;28;20425;-66
2020/12/03 05:20:37;;;;;;;94.47;38.37;;;0.20;99.90;;;;;;5137177;28;20425;-66
2020/12/03 05:23:10;;;;;;;103.37;41.63;;;0.30;99.90;;;;;;5130869;28;20491;-66
2020/12/03 05:25:37;;;;;;;99.50;43.03;;;0.20;99.90;;;;;;5136985;28;20432;-66
2020/12/03 05:28:45;;;;;;;97.60;40.53;;;0.30;99.90;;;;;;5138098;28;20440;-66
2020/12/03 05:31:19;;;;;;;92.83;42.53;;;0.20;99.90;;;;;;5090210;28;20479;-66
2020/12/03 05:33:46;;;;;;;103.47;41.47;;;0.20;99.90;;;;;;5137487;28;20464;-66
2020/12/03 05:36:21;;;;;;;90.67;42.13;;;0.20;99.90;;;;;;5137019;28;20443;-66
2020/12/03 05:38:48;;;;;;;93.77;38.80;;;0.20;99.90;;;;;;5137505;28;20421;-66
2020/12/03 05:41:17;;;;;;;84.17;37.23;;;0.20;99.90;;;;;;5137130;28;20495;-66
2020/12/03 05:43:44;;;;;;;106.13;39.40;;;0.30;99.90;;;;;;5136410;28;20475;-66
2020/12/03 05:46:13;;;;;;;99.20;37.17;;;0.30;99.90;;;;;;5136352;28;20459;-66
2020/12/03 05:48:40;;;;;;;89.77;37.73;;;0.30;99.90;;;;;;5136582;28;20445;-66
2020/12/03 05:51:17;;;;;;;96.73;38.30;;;0.30;99.90;;;;;;5136249;28;20441;-66
2020/12/03 05:53:53;;;;;;;117.70;42.27;;;0.30;99.90;;;;;;5135759;28;20495;-67
2020/12/03 05:56:24;;;;;;;76.47;38.27;;;0.40;99.90;;;;;;5134171;28;20489;-66
2020/12/03 05:58:50;;;;;;;98.67;40.73;;;0.40;99.90;;;;;;5130489;28;20459;-66
2020/12/03 06:01:19;;;;;;;89.17;39.10;;;0.30;99.90;;;;;;5132986;28;20441;-68
2020/12/03 06:04:03;;;;;;;99.47;40.03;;;0.30;99.90;;;;;;5134104;28;20504;-67
2020/12/03 06:07:03;;;;;;;83.20;39.37;;;0.40;99.90;;;;;;5135516;28;20455;-66
2020/12/03 06:09:58;;;;;;;100.77;36.87;;;0.40;99.90;;;;;;5135042;28;20487;-67
2020/12/03 06:12:42;;;;;;;95.30;39.77;;;0.40;99.90;;;;;;5115850;28;20500;-67
2020/12/03 06:15:21;;;;;;;89.57;35.10;;;0.30;99.90;;;;;;5124015;28;20428;-66
2020/12/03 06:18:05;;;;;;;92.53;39.87;;;0.40;99.90;;;;;;5130323;28;20480;-67
2020/12/03 06:20:52;;;;;;;91.33;40.03;;;0.40;99.90;;;;;;5125414;28;20618;-66
2020/12/03 06:23:43;;;;;;;92.30;40.20;;;0.40;99.90;;;;;;5136359;28;20452;-66
2020/12/03 06:26:20;;;;;;;107.40;41.03;;;0.40;99.90;;;;;;5116666;28;20535;-66
2020/12/03 06:29:02;;;;;;;92.43;37.70;;;0.50;99.90;;;;;;5136189;28;20486;-67
2020/12/03 06:31:37;;;;;;;103.77;39.47;;;0.50;99.90;;;;;;5138986;28;20432;-68
2020/12/03 06:34:18;;;;;;;101.57;39.03;;;0.50;99.90;;;;;;5138716;28;20401;-66
2020/12/03 06:36:49;;;;;;;98.33;39.77;;;0.50;99.90;;;;;;5138446;28;20464;-67
2020/12/03 06:39:36;;;;;;;81.77;37.00;;;0.60;99.90;;;;;;5138620;28;20425;-66
2020/12/03 06:42:10;;;;;;;86.80;37.40;;;0.60;99.90;;;;;;5138683;28;20437;-67
2020/12/03 06:44:43;;;;;;;104.80;44.77;;;0.60;99.90;;;;;;5138151;28;20476;-65
2020/12/03 06:47:51;;;;;;;84.47;37.53;;;0.60;99.90;;;;;;5138097;28;20425;-65
2020/12/03 06:50:41;;;;;;;87.10;37.50;;;0.60;99.90;;;;;;5138022;28;20448;-66
2020/12/03 06:53:31;;;;;;;105.07;42.50;;;0.60;99.90;;;;;;5137928;28;20452;-66
2020/12/03 06:56:22;;;;;;;89.63;37.90;;;0.60;99.90;;;;;;5138341;28;20420;-65
2020/12/03 06:59:20;;;;;;;80.90;38.67;;;0.60;99.90;;;;;;5138255;28;20421;-66
2020/12/03 07:02:14;;;;;;;96.67;39.20;;;0.60;99.90;;;;;;5137725;28;20405;-66
2020/12/03 07:05:11;;;;;;;106.73;37.40;;;0.50;99.90;;;;;;5138166;28;20464;-66
2020/12/03 07:08:04;;;;;;;91.87;40.50;;;0.50;99.90;;;;;;5137889;28;20447;-65
2020/12/03 07:10:57;;;;;;;82.13;36.90;;;0.60;99.90;;;;;;5138091;28;20439;-66
2020/12/03 07:13:59;;;;;;;100.17;40.20;;;0.60;99.90;;;;;;5138156;28;20445;-66
2020/12/03 07:17:08;;;;;;;96.33;37.60;;;0.50;99.90;;;;;;5137876;28;20500;-66
2020/12/03 07:20:02;;;;;;;87.50;37.43;;;0.40;99.90;;;;;;5073378;28;20445;-66
2020/12/03 07:22:33;;;;;;;92.87;37.00;;;0.50;99.90;;;;;;5137789;28;20428;-66
2020/12/03 07:25:01;;;;;;;81.97;35.47;;;0.50;99.90;;;;;;5137276;28;20477;-67
2020/12/03 07:27:57;;;;;;;89.60;34.33;;;0.60;99.90;;;;;;5137927;28;20453;-67
2020/12/03 07:30:49;;;;;;;83.33;38.33;;;0.60;99.90;;;;;;5137132;28;20425;-66
2020/12/03 07:33:37;;;;;;;80.53;38.20;;;0.60;99.90;;;;;;5138048;28;20428;-66
2020/12/03 07:36:21;;;;;;;89.83;34.90;;;0.60;99.90;;;;;;5133696;28;20433;-66
2020/12/03 07:38:54;;;;;;;77.90;39.03;;;0.70;99.90;;;;;;5138047;28;20425;-66
2020/12/03 07:41:23;;;;;;;87.93;39.60;;;0.60;99.90;;;;;;5138120;28;20444;-67
2020/12/03 07:44:04;;;;;;;80.93;37.50;;;0.60;99.90;;;;;;5136997;28;20472;-67
2020/12/03 07:46:37;;;;;;;80.67;35.83;;;0.60;99.90;;;;;;5137095;28;20460;-66
2020/12/03 07:49:05;;;;;;;91.67;37.50;;;0.60;99.90;;;;;;5136829;28;20456;-66
2020/12/03 07:51:32;;;;;;;90.87;37.03;;;0.60;99.90;;;;;;5133667;28;20445;-66
2020/12/03 07:54:24;;;;;;;89.90;34.97;;;0.70;99.90;;;;;;5133394;28;20443;-66
2020/12/03 07:56:52;;;;;;;91.57;39.40;;;0.60;99.90;;;;;;5114000;28;20456;-66
2020/12/03 07:59:37;;;;;;;87.67;39.40;;;0.70;99.90;;;;;;5133535;28;20464;-67
2020/12/03 08:02:20;;;;;;;87.23;35.50;;;0.60;99.90;;;;;;5115119;28;20885;-66
2020/12/03 08:04:46;;;;;;;87.73;40.57;;;0.60;99.90;;;;;;5132123;28;20472;-67
2020/12/03 08:07:34;;;;;;;86.20;35.90;;;0.70;99.90;;;;;;5131597;28;20440;-67
2020/12/03 08:10:01;;;;;;;89.20;36.10;;;0.80;99.90;;;;;;5089133;28;20430;-67
2020/12/03 08:12:30;;;;;;;85.57;36.00;;;0.80;99.90;;;;;;5095884;28;20446;-66
2020/12/03 08:14:57;;;;;;;70.80;31.87;;;0.80;99.90;;;;;;5095509;28;20427;-67
2020/12/03 08:17:47;;;;;;;81.40;37.27;;;0.80;99.90;;;;;;5096290;28;20448;-67
2020/12/03 08:20:24;;;;;;;88.97;35.57;;;0.80;99.90;;;;;;5096968;28;20465;-66
2020/12/03 08:22:54;;;;;;;70.70;32.27;;;0.90;99.90;;;;;;5096833;28;20438;-67
2020/12/03 08:25:26;;;;;;;72.40;34.90;;;0.80;99.90;;;;;;5097014;28;20457;-66
2020/12/03 08:28:00;;;;;;;76.63;31.43;;;0.80;99.90;;;;;;5095715;28;20465;-66
2020/12/03 08:30:36;;;;;;;90.40;35.90;;;0.90;99.90;;;;;;5096222;28;20422;-66
2020/12/03 08:33:09;;;;;;;72.53;34.00;;;0.90;99.90;;;;;;5095559;28;20438;-67
2020/12/03 08:35:36;;;;;;;71.10;31.80;;;0.90;99.90;;;;;;5095691;28;20453;-65
2020/12/03 08:38:04;;;;;;;73.10;34.20;;;0.90;99.90;;;;;;5095205;28;20445;-66
2020/12/03 08:40:32;;;;;;;77.37;35.47;;;0.90;99.90;;;;;;5095448;28;20489;-65
2020/12/03 08:43:03;;;;;;;83.00;35.97;;;0.90;99.90;;;;;;5094977;28;20453;-66
2020/12/03 08:45:33;;;;;;;74.73;33.77;;;1.00;99.90;;;;;;5095888;28;20444;-66
2020/12/03 08:48:01;;;;;;;70.13;31.47;;;1.00;99.90;;;;;;5095483;28;20450;-67
2020/12/03 08:50:28;;;;;;;70.93;34.37;;;1.00;99.90;;;;;;5095456;28;20438;-66
2020/12/03 08:52:55;;;;;;;80.23;34.07;;;1.00;99.90;;;;;;5095661;28;20430;-66
2020/12/03 08:55:21;;;;;;;85.80;37.40;;;0.90;99.90;;;;;;5095747;28;20474;-66
2020/12/03 08:57:54;;;;;;;82.87;37.03;;;0.90;99.90;;;;;;5095398;28;20470;-66
2020/12/03 09:00:24;;;;;;;59.23;29.13;;;0.90;99.90;;;;;;5095659;28;20438;-67
2020/12/03 09:02:51;;;;;;;71.30;32.60;;;0.90;99.90;;;;;;5095426;28;20442;-66
2020/12/03 09:05:18;;;;;;;76.27;32.13;;;1.00;99.90;;;;;;5086255;28;20422;-66
2020/12/03 09:07:49;;;;;;;75.77;33.90;;;1.10;99.90;;;;;;5101201;28;20464;-66
2020/12/03 09:10:18;;;;;;;78.10;34.67;;;1.10;99.90;;;;;;5136485;28;20440;-67
2020/12/03 09:12:46;;;;;;;81.87;32.30;;;1.10;99.90;;;;;;5136126;28;20433;-67
2020/12/03 09:15:16;;;;;;;76.33;32.60;;;1.10;99.90;;;;;;5135891;28;20444;-66
2020/12/03 09:17:45;;;;;;;74.27;31.93;;;1.20;99.90;;;;;;5135873;28;20444;-66
2020/12/03 09:20:12;;;;;;;70.37;31.50;;;1.20;99.90;;;;;;5135349;28;20542;-67
2020/12/03 09:22:40;;;;;;;62.13;30.40;;;1.20;99.90;;;;;;5135238;28;20437;-66
2020/12/03 09:25:09;;;;;;;90.40;34.30;;;1.20;99.90;;;;;;5135051;28;20483;-67
2020/12/03 09:27:40;;;;;;;74.87;34.00;;;1.20;99.90;;;;;;5118477;28;20476;-67
2020/12/03 09:30:10;;;;;;;71.97;29.83;;;1.30;99.90;;;;;;5131622;28;20440;-68
2020/12/03 09:32:39;;;;;;;78.10;32.77;;;1.30;99.90;;;;;;5136917;28;20421;-65
2020/12/03 09:35:06;;;;;;;65.70;30.73;;;1.60;99.90;;;;;;5139309;28;20427;-65
2020/12/03 09:37:34;;;;;;;76.90;33.50;;;1.50;99.90;;;;;;5137591;28;20479;-65
2020/12/03 09:40:01;;;;;;;75.87;31.97;;;1.40;99.90;;;;;;5139550;28;20507;-64
2020/12/03 09:42:35;;;;;;;63.10;29.70;;;1.30;99.90;;;;;;5139422;28;20490;-65
2020/12/03 09:45:07;;;;;;;71.70;32.00;;;1.30;99.90;;;;;;5138830;28;20515;-65
2020/12/03 09:47:35;;;;;;;68.40;29.20;;;1.30;99.90;;;;;;5138886;28;20443;-67
2020/12/03 09:50:02;;;;;;;67.50;29.23;;;1.40;99.90;;;;;;5138537;28;20500;-67
2020/12/03 09:52:30;;;;;;;75.57;30.03;;;1.30;99.90;;;;;;5139672;28;20441;-67
2020/12/03 09:54:56;;;;;;;65.13;29.80;;;1.30;99.90;;;;;;5132159;28;20441;-66
2020/12/03 09:57:23;;;;;;;71.17;30.67;;;1.40;99.90;;;;;;5131816;28;20428;-67
2020/12/03 09:59:54;;;;;;;53.63;27.47;;;1.30;99.90;;;;;;5139054;28;20408;-67
2020/12/03 10:02:58;;;;;;;59.20;28.10;;;1.30;99.90;;;;;;5139432;28;20443;-66
2020/12/03 10:05:38;;;;;;;62.60;30.60;;;1.40;99.90;;;;;;5120838;28;20401;-66
2020/12/03 10:08:37;;;;;;;64.87;29.40;;;1.50;99.90;;;;;;5130774;28;20464;-66
2020/12/03 10:11:18;;;;;;;67.00;28.20;;;1.40;99.90;;;;;;5138896;28;20460;-65
2020/12/03 10:14:06;;;;;;;55.73;29.23;;;1.30;99.90;;;;;;5138771;28;20452;-66
2020/12/03 10:16:39;;;;;;;58.40;26.53;;;1.30;99.90;;;;;;5127563;28;20429;-66
2020/12/03 10:19:07;;;;;;;66.40;29.40;;;1.30;99.90;;;;;;5139640;28;20432;-66
2020/12/03 10:21:40;;;;;;;60.30;28.77;;;1.30;99.90;;;;;;5139311;28;20499;-67
2020/12/03 10:24:10;;;;;;;65.60;28.73;;;1.40;99.90;;;;;;5138805;28;20476;-66
2020/12/03 10:26:48;;;;;;;53.37;26.60;;;1.50;99.90;;;;;;5138776;28;20436;-67
2020/12/03 10:29:29;;;;;;;61.07;26.53;;;1.40;99.90;;;;;;5139125;28;20442;-66
2020/12/03 10:31:57;;;;;;;60.13;29.07;;;1.50;99.90;;;;;;5138653;28;20409;-65
2020/12/03 10:34:24;;;;;;;53.20;26.93;;;1.40;99.90;;;;;;5138291;28;20770;-65
2020/12/03 10:36:52;;;;;;;69.43;28.90;;;1.50;99.90;;;;;;5138123;28;20449;-62
2020/12/03 10:39:20;;;;;;;57.33;27.27;;;1.50;99.90;;;;;;5137248;28;20445;-63
2020/12/03 10:41:52;;;;;;;57.97;27.80;;;1.60;99.90;;;;;;5138070;28;20480;-62
2020/12/03 10:44:21;;;;;;;77.70;28.90;;;1.60;99.90;;;;;;5137279;28;20544;-63
2020/12/03 10:46:53;;;;;;;54.87;26.23;;;1.60;99.90;;;;;;5138307;28;20441;-62
2020/12/03 10:49:24;;;;;;;67.40;27.57;;;1.50;99.90;;;;;;5136730;28;20447;-63
2020/12/03 10:51:51;;;;;;;56.70;26.33;;;1.50;99.90;;;;;;5136499;28;20441;-60
2020/12/03 10:54:19;;;;;;;59.47;25.37;;;1.50;99.90;;;;;;5124686;28;20504;-63
2020/12/03 10:56:49;;;;;;;55.97;28.37;;;1.50;99.90;;;;;;5122777;28;20463;-63
2020/12/03 10:59:41;;;;;;;63.67;27.80;;;1.50;99.90;;;;;;5126871;28;20441;-63
2020/12/03 11:02:17;;;;;;;60.83;27.40;;;1.60;99.90;;;;;;5130659;28;20532;-63
2020/12/03 11:04:45;;;;;;;54.83;26.80;;;1.60;99.90;;;;;;5127680;28;20460;-64
2020/12/03 11:07:13;;;;;;;56.77;25.77;;;1.50;99.90;;;;;;5132851;28;20897;-61
2020/12/03 11:09:41;;;;;;;55.07;25.90;;;1.50;99.90;;;;;;5131361;28;20461;-60
2020/12/03 11:12:12;;;;;;;51.37;27.40;;;1.60;99.90;;;;;;5137177;28;20436;-60
2020/12/03 11:14:39;;;;;;;55.03;28.03;;;1.60;99.90;;;;;;5136828;28;20968;-59
2020/12/03 11:17:13;;;;;;;58.83;25.00;;;1.70;99.90;;;;;;5136160;28;20425;-61
2020/12/03 11:19:51;;;;;;;56.80;25.73;;;1.80;99.90;;;;;;5137377;28;20444;-61
2020/12/03 11:22:33;;;;;;;53.23;24.43;;;1.80;99.90;;;;;;5131168;28;20421;-64
2020/12/03 11:25:12;;;;;;;50.57;26.23;;;1.70;99.90;;;;;;5137153;28;20460;-63
2020/12/03 11:27:43;;;;;;;60.70;26.97;;;1.70;99.90;;;;;;5134467;28;20492;-63
2020/12/03 11:30:20;;;;;;;55.20;24.37;;;1.60;99.90;;;;;;5135165;28;20452;-63
2020/12/03 11:32:47;;;;;;;50.30;27.00;;;1.70;99.90;;;;;;5131073;28;20436;-63
2020/12/03 11:35:24;;;;;;;54.00;24.90;;;1.70;99.90;;;;;;5136656;28;20456;-64
2020/12/03 11:37:53;;;;;;;52.57;25.40;;;1.80;99.90;;;;;;5132468;28;20433;-64
2020/12/03 11:40:30;;;;;;;51.73;27.60;;;1.80;99.90;;;;;;5123550;28;20784;-64
2020/12/03 11:43:13;;;;;;;60.63;27.53;;;2.00;99.90;;;;;;5136042;28;20445;-63
2020/12/03 11:48:31;;;;;;;60.03;27.80;;;2.10;99.90;;;;;;5132978;28;20429;-63
2020/12/03 11:50:59;;;;;;;47.30;23.20;;;2.10;99.90;;;;;;5128447;28;20938;-63
2020/12/03 11:53:26;;;;;;;46.67;25.90;;;2.10;99.90;;;;;;5135621;28;20453;-63
2020/12/03 11:55:53;;;;;;;58.83;25.47;;;2.10;99.90;;;;;;5134607;28;20460;-64
2020/12/03 11:58:26;;;;;;;44.37;25.33;;;2.20;99.90;;;;;;5120967;28;20443;-65
2020/12/03 12:01:12;;;;;;;52.77;25.43;;;2.20;99.90;;;;;;5125833;28;20745;-64
2020/12/03 12:03:41;;;;;;;56.20;25.17;;;2.20;99.90;;;;;;5114601;28;20490;-65
2020/12/03 12:06:18;;;;;;;51.20;22.73;;;2.20;99.90;;;;;;5110683;28;20448;-65
2020/12/03 12:08:48;;;;;;;46.20;23.73;;;2.20;99.90;;;;;;5113054;28;20472;-65
2020/12/03 12:11:19;;;;;;;56.70;26.63;;;2.20;99.90;;;;;;5124362;28;20415;-63
2020/12/03 12:13:46;;;;;;;48.20;23.27;;;2.10;99.90;;;;;;5136588;28;20425;-64
2020/12/03 12:16:12;;;;;;;50.77;23.57;;;2.10;99.90;;;;;;5136711;28;20508;-65
2020/12/03 12:18:50;;;;;;;50.13;24.97;;;2.10;99.90;;;;;;5136951;28;20820;-65
2020/12/03 12:21:20;;;;;;;52.37;24.73;;;2.10;99.90;;;;;;5136120;28;20427;-65
2020/12/03 12:23:49;;;;;;;49.83;22.40;;;2.10;99.90;;;;;;5135955;28;20533;-67
2020/12/03 12:26:15;;;;;;;43.00;22.80;;;2.20;99.90;;;;;;5127340;28;20489;-65
2020/12/03 12:28:42;;;;;;;42.60;21.50;;;2.20;99.90;;;;;;5127509;28;20467;-66
2020/12/03 12:31:09;;;;;;;53.60;24.17;;;2.20;99.90;;;;;;5126697;28;20448;-64
2020/12/03 12:33:35;;;;;;;47.40;21.90;;;2.30;99.90;;;;;;5127033;28;20463;-64
2020/12/03 12:36:02;;;;;;;49.97;23.33;;;2.20;99.90;;;;;;5127223;28;20469;-64
2020/12/03 12:38:29;;;;;;;37.53;19.83;;;2.20;99.90;;;;;;5128509;28;20475;-64
2020/12/03 12:40:56;;;;;;;45.90;25.30;;;2.20;99.90;;;;;;5119127;28;20463;-63
2020/12/03 12:43:23;;;;;;;40.40;22.63;;;2.20;99.90;;;;;;5127583;28;20476;-64
2020/12/03 12:45:49;;;;;;;50.13;22.73;;;2.20;99.90;;;;;;5126466;28;20432;-64
2020/12/03 12:48:16;;;;;;;43.23;20.50;;;2.30;99.90;;;;;;5127097;28;20466;-64
2020/12/03 12:50:43;;;;;;;54.57;20.00;;;2.40;99.90;;;;;;5126410;28;20436;-64
2020/12/03 12:53:10;;;;;;;48.67;22.33;;;2.40;99.90;;;;;;5126653;28;20470;-63
2020/12/03 12:55:38;;;;;;;53.20;23.60;;;2.50;99.90;;;;;;5127698;28;20505;-64
2020/12/03 12:58:06;;;;;;;53.83;25.37;;;2.40;99.90;;;;;;5127041;28;20444;-63
2020/12/03 13:00:33;;;;;;;44.87;21.83;;;2.40;99.90;;;;;;5128409;28;20451;-64
2020/12/03 13:03:00;;;;;;;52.20;23.50;;;2.30;99.90;;;;;;5127923;28;20440;-64
2020/12/03 13:05:27;;;;;;;45.50;22.07;;;2.20;99.90;;;;;;5126868;28;20503;-64